sensor_id;sensor_type;location;lat;lon;timestamp;pressure;altitude;pressure_sealevel;temperature;humidity
72409;BME280;60402;48.082;11.628;2023-02-04T00:01:19;96212.84;;;4.04;100.00
72409;BME280;60402;48.082;11.628;2023-02-04T00:03:44;96233.06;;;4.24;100.00
72409;BME280;60402;48.082;11.628;2023-02-04T00:06:10;96218.22;;;4.20;100.00
72409;BME280;60402;48.082;11.628;2023-02-04T00:08:35;96213.25;;;4.03;100.00
72409;BME280;60402;48.082;11.628;2023-02-04T00:11:02;96206.47;;;4.04;100.00
72409;BME280;60402;48.082;11.628;2023-02-04T00:13:27;96210.88;;;4.05;100.00
72409;BME280;60402;48.082;11.628;2023-02-04T00:15:52;96230.13;;;4.10;100.00
72409;BME280;60402;48.082;11.628;2023-02-04T00:18:18;96221.72;;;4.10;100.00
72409;BME280;60402;48.082;11.628;2023-02-04T00:20:43;96237.72;;;4.09;100.00
72409;BME280;60402;48.082;11.628;2023-02-04T00:23:08;96232.03;;;4.02;100.00
72409;BME280;60402;48.082;11.628;2023-02-04T00:25:33;96231.69;;;4.07;100.00
72409;BME280;60402;48.082;11.628;2023-02-04T00:27:59;96227.88;;;3.89;100.00
72409;BME280;60402;48.082;11.628;2023-02-04T00:30:24;96234.47;;;4.07;100.00
72409;BME280;60402;48.082;11.628;2023-02-04T00:32:49;96236.56;;;4.14;100.00
72409;BME280;60402;48.082;11.628;2023-02-04T00:35:19;96240.16;;;4.15;100.00
72409;BME280;60402;48.082;11.628;2023-02-04T00:37:44;96237.72;;;4.09;100.00
72409;BME280;60402;48.082;11.628;2023-02-04T00:40:10;96246.91;;;4.10;100.00
72409;BME280;60402;48.082;11.628;2023-02-04T00:42:35;96241.66;;;4.08;100.00
72409;BME280;60402;48.082;11.628;2023-02-04T00:45:00;96263.38;;;4.22;100.00
72409;BME280;60402;48.082;11.628;2023-02-04T00:47:25;96277.72;;;4.17;100.00
72409;BME280;60402;48.082;11.628;2023-02-04T00:49:51;96272.88;;;4.10;100.00
72409;BME280;60402;48.082;11.628;2023-02-04T00:52:16;96256.13;;;4.14;100.00
72409;BME280;60402;48.082;11.628;2023-02-04T00:54:41;96251.53;;;3.95;100.00
72409;BME280;60402;48.082;11.628;2023-02-04T00:57:07;96232.72;;;3.92;100.00
72409;BME280;60402;48.082;11.628;2023-02-04T00:59:32;96251.53;;;3.95;100.00
72409;BME280;60402;48.082;11.628;2023-02-04T01:01:57;96251.03;;;3.86;100.00
72409;BME280;60402;48.082;11.628;2023-02-04T01:04:23;96276.38;;;4.04;100.00
72409;BME280;60402;48.082;11.628;2023-02-04T01:06:48;96280.38;;;4.03;100.00
72409;BME280;60402;48.082;11.628;2023-02-04T01:09:13;96266.38;;;4.03;100.00
72409;BME280;60402;48.082;11.628;2023-02-04T01:11:38;96269.53;;;3.98;100.00
72409;BME280;60402;48.082;11.628;2023-02-04T01:14:04;96287.56;;;4.04;100.00
72409;BME280;60402;48.082;11.628;2023-02-04T01:16:29;96305.19;;;4.08;100.00
72409;BME280;60402;48.082;11.628;2023-02-04T01:18:54;96305.13;;;4.01;100.00
72409;BME280;60402;48.082;11.628;2023-02-04T01:21:23;96299.50;;;3.97;100.00
72409;BME280;60402;48.082;11.628;2023-02-04T01:23:48;96315.03;;;3.95;100.00
72409;BME280;60402;48.082;11.628;2023-02-04T01:26:15;96296.13;;;3.84;100.00
72409;BME280;60402;48.082;11.628;2023-02-04T01:28:40;96280.09;;;3.78;100.00
72409;BME280;60402;48.082;11.628;2023-02-04T01:31:05;96300.63;;;3.93;100.00
72409;BME280;60402;48.082;11.628;2023-02-04T01:33:30;96305.84;;;3.94;100.00
72409;BME280;60402;48.082;11.628;2023-02-04T01:35:56;96288.94;;;3.83;100.00
72409;BME280;60402;48.082;11.628;2023-02-04T01:38:22;96273.19;;;3.68;100.00
72409;BME280;60402;48.082;11.628;2023-02-04T01:40:47;96280.16;;;3.85;100.00
72409;BME280;60402;48.082;11.628;2023-02-04T01:43:13;96280.44;;;3.76;100.00
72409;BME280;60402;48.082;11.628;2023-02-04T01:45:38;96282.16;;;3.84;100.00
72409;BME280;60402;48.082;11.628;2023-02-04T01:48:05;96299.78;;;3.89;100.00
72409;BME280;60402;48.082;11.628;2023-02-04T01:50:31;96321.06;;;3.97;100.00
72409;BME280;60402;48.082;11.628;2023-02-04T01:52:57;96330.31;;;4.01;100.00
72409;BME280;60402;48.082;11.628;2023-02-04T01:55:25;96321.00;;;3.93;100.00
72409;BME280;60402;48.082;11.628;2023-02-04T01:57:52;96323.41;;;3.95;100.00
72409;BME280;60402;48.082;11.628;2023-02-04T02:00:29;96325.84;;;3.96;100.00
72409;BME280;60402;48.082;11.628;2023-02-04T02:02:54;96328.66;;;3.96;100.00
72409;BME280;60402;48.082;11.628;2023-02-04T02:05:25;96326.72;;;4.04;100.00
72409;BME280;60402;48.082;11.628;2023-02-04T02:07:54;96315.47;;;3.97;100.00
72409;BME280;60402;48.082;11.628;2023-02-04T02:10:20;96329.31;;;4.20;100.00
72409;BME280;60402;48.082;11.628;2023-02-04T02:12:47;96319.41;;;3.92;100.00
72409;BME280;60402;48.082;11.628;2023-02-04T02:15:13;96333.97;;;4.08;100.00
72409;BME280;60402;48.082;11.628;2023-02-04T02:17:39;96331.16;;;4.08;100.00
72409;BME280;60402;48.082;11.628;2023-02-04T02:20:08;96328.81;;;4.10;100.00
72409;BME280;60402;48.082;11.628;2023-02-04T02:22:54;96334.53;;;4.21;100.00
72409;BME280;60402;48.082;11.628;2023-02-04T02:25:22;96321.47;;;3.99;100.00
72409;BME280;60402;48.082;11.628;2023-02-04T02:27:47;96331.94;;;4.05;100.00
72409;BME280;60402;48.082;11.628;2023-02-04T02:30:14;96324.06;;;4.15;100.00
72409;BME280;60402;48.082;11.628;2023-02-04T02:32:45;96346.97;;;4.27;100.00
72409;BME280;60402;48.082;11.628;2023-02-04T02:35:12;96344.91;;;4.21;100.00
72409;BME280;60402;48.082;11.628;2023-02-04T02:37:37;96350.56;;;4.24;100.00
72409;BME280;60402;48.082;11.628;2023-02-04T02:40:03;96360.13;;;4.23;100.00
72409;BME280;60402;48.082;11.628;2023-02-04T02:42:30;96368.16;;;4.25;100.00
72409;BME280;60402;48.082;11.628;2023-02-04T02:44:56;96361.81;;;4.31;100.00
72409;BME280;60402;48.082;11.628;2023-02-04T02:47:22;96359.34;;;4.26;100.00
72409;BME280;60402;48.082;11.628;2023-02-04T02:49:50;96350.56;;;4.24;100.00
72409;BME280;60402;48.082;11.628;2023-02-04T02:52:16;96345.13;;;4.05;100.00
72409;BME280;60402;48.082;11.628;2023-02-04T02:54:41;96355.19;;;4.13;100.00
72409;BME280;60402;48.082;11.628;2023-02-04T02:57:13;96372.03;;;4.17;100.00
72409;BME280;60402;48.082;11.628;2023-02-04T02:59:39;96363.06;;;4.00;100.00
72409;BME280;60402;48.082;11.628;2023-02-04T03:02:05;96364.72;;;4.08;100.00
72409;BME280;60402;48.082;11.628;2023-02-04T03:04:33;96374.25;;;4.04;100.00
72409;BME280;60402;48.082;11.628;2023-02-04T03:07:00;96384.94;;;3.95;100.00
72409;BME280;60402;48.082;11.628;2023-02-04T03:09:26;96361.75;;;3.94;100.00
72409;BME280;60402;48.082;11.628;2023-02-04T03:11:52;96372.19;;;3.97;100.00
72409;BME280;60402;48.082;11.628;2023-02-04T03:14:18;96372.53;;;3.92;100.00
72409;BME280;60402;48.082;11.628;2023-02-04T03:16:43;96373.72;;;3.91;100.00
72409;BME280;60402;48.082;11.628;2023-02-04T03:19:10;96365.50;;;3.75;100.00
72409;BME280;60402;48.082;11.628;2023-02-04T03:21:36;96371.16;;;3.79;100.00
72409;BME280;60402;48.082;11.628;2023-02-04T03:24:02;96384.91;;;3.91;100.00
72409;BME280;60402;48.082;11.628;2023-02-04T03:26:28;96375.13;;;3.78;100.00
72409;BME280;60402;48.082;11.628;2023-02-04T03:28:53;96388.16;;;3.97;100.00
72409;BME280;60402;48.082;11.628;2023-02-04T03:31:19;96401.00;;;4.01;100.00
72409;BME280;60402;48.082;11.628;2023-02-04T03:33:44;96383.53;;;3.78;100.00
72409;BME280;60402;48.082;11.628;2023-02-04T03:36:09;96394.03;;;3.88;100.00
72409;BME280;60402;48.082;11.628;2023-02-04T03:38:35;96389.72;;;3.94;100.00
72409;BME280;60402;48.082;11.628;2023-02-04T03:41:00;96404.94;;;3.97;100.00
72409;BME280;60402;48.082;11.628;2023-02-04T03:43:26;96419.63;;;3.90;100.00
72409;BME280;60402;48.082;11.628;2023-02-04T03:45:51;96417.22;;;3.89;100.00
72409;BME280;60402;48.082;11.628;2023-02-04T03:48:17;96427.72;;;3.95;100.00
72409;BME280;60402;48.082;11.628;2023-02-04T03:50:42;96424.59;;;4.04;100.00
72409;BME280;60402;48.082;11.628;2023-02-04T03:53:08;96439.41;;;4.04;100.00
72409;BME280;60402;48.082;11.628;2023-02-04T03:55:33;96418.50;;;3.95;100.00
72409;BME280;60402;48.082;11.628;2023-02-04T03:57:58;96446.19;;;4.03;100.00
72409;BME280;60402;48.082;11.628;2023-02-04T04:00:24;96439.03;;;4.06;100.00
72409;BME280;60402;48.082;11.628;2023-02-04T04:02:49;96428.06;;;3.94;100.00
72409;BME280;60402;48.082;11.628;2023-02-04T04:05:14;96434.94;;;4.00;100.00
72409;BME280;60402;48.082;11.628;2023-02-04T04:07:40;96447.16;;;4.15;100.00
72409;BME280;60402;48.082;11.628;2023-02-04T04:10:05;96451.94;;;4.14;100.00
72409;BME280;60402;48.082;11.628;2023-02-04T04:12:31;96438.59;;;4.04;100.00
72409;BME280;60402;48.082;11.628;2023-02-04T04:14:56;96442.53;;;3.99;99.98
72409;BME280;60402;48.082;11.628;2023-02-04T04:17:22;96452.50;;;3.97;99.85
72409;BME280;60402;48.082;11.628;2023-02-04T04:19:47;96471.34;;;4.03;99.99
72409;BME280;60402;48.082;11.628;2023-02-04T04:22:13;96468.66;;;4.10;100.00
72409;BME280;60402;48.082;11.628;2023-02-04T04:24:39;96475.41;;;4.06;99.36
72409;BME280;60402;48.082;11.628;2023-02-04T04:27:04;96477.38;;;4.05;99.80
72409;BME280;60402;48.082;11.628;2023-02-04T04:29:29;96471.78;;;4.05;98.80
72409;BME280;60402;48.082;11.628;2023-02-04T04:31:55;96473.94;;;3.89;99.51
72409;BME280;60402;48.082;11.628;2023-02-04T04:34:20;96474.19;;;3.77;99.05
72409;BME280;60402;48.082;11.628;2023-02-04T04:36:45;96493.50;;;3.89;98.25
72409;BME280;60402;48.082;11.628;2023-02-04T04:39:11;96498.50;;;3.76;99.35
72409;BME280;60402;48.082;11.628;2023-02-04T04:41:36;96492.34;;;3.64;99.29
72409;BME280;60402;48.082;11.628;2023-02-04T04:44:01;96494.97;;;3.53;99.23
72409;BME280;60402;48.082;11.628;2023-02-04T04:46:26;96492.44;;;3.48;99.53
72409;BME280;60402;48.082;11.628;2023-02-04T04:48:52;96509.22;;;3.48;99.02
72409;BME280;60402;48.082;11.628;2023-02-04T04:51:17;96500.28;;;3.39;98.62
72409;BME280;60402;48.082;11.628;2023-02-04T04:53:42;96498.66;;;3.38;98.06
72409;BME280;60402;48.082;11.628;2023-02-04T04:56:08;96526.84;;;3.52;98.00
72409;BME280;60402;48.082;11.628;2023-02-04T04:58:33;96525.50;;;3.42;97.32
72409;BME280;60402;48.082;11.628;2023-02-04T05:00:58;96523.94;;;3.22;98.07
72409;BME280;60402;48.082;11.628;2023-02-04T05:03:23;96534.44;;;3.28;98.29
72409;BME280;60402;48.082;11.628;2023-02-04T05:05:49;96534.25;;;3.18;98.08
72409;BME280;60402;48.082;11.628;2023-02-04T05:10:45;96535.03;;;3.18;98.52
72409;BME280;60402;48.082;11.628;2023-02-04T05:13:11;96541.34;;;3.15;97.31
72409;BME280;60402;48.082;11.628;2023-02-04T05:15:37;96530.75;;;3.01;98.05
72409;BME280;60402;48.082;11.628;2023-02-04T05:18:02;96523.41;;;2.93;98.55
72409;BME280;60402;48.082;11.628;2023-02-04T05:20:28;96526.44;;;2.85;98.66
72409;BME280;60402;48.082;11.628;2023-02-04T05:22:53;96549.03;;;2.99;98.55
72409;BME280;60402;48.082;11.628;2023-02-04T05:25:25;96546.75;;;3.04;98.25
72409;BME280;60402;48.082;11.628;2023-02-04T05:27:50;96542.16;;;2.93;98.28
72409;BME280;60402;48.082;11.628;2023-02-04T05:30:15;96547.28;;;2.91;98.67
72409;BME280;60402;48.082;11.628;2023-02-04T05:32:41;96561.31;;;2.94;98.74
72409;BME280;60402;48.082;11.628;2023-02-04T05:35:06;96540.19;;;2.74;98.69
72409;BME280;60402;48.082;11.628;2023-02-04T05:37:32;96543.91;;;2.81;98.29
72409;BME280;60402;48.082;11.628;2023-02-04T05:39:57;96556.41;;;2.88;97.68
72409;BME280;60402;48.082;11.628;2023-02-04T05:42:23;96577.53;;;3.08;97.04
72409;BME280;60402;48.082;11.628;2023-02-04T05:44:48;96552.56;;;2.76;97.71
72409;BME280;60402;48.082;11.628;2023-02-04T05:47:13;96589.09;;;3.06;97.95
72409;BME280;60402;48.082;11.628;2023-02-04T05:49:39;96579.69;;;2.95;97.53
72409;BME280;60402;48.082;11.628;2023-02-04T05:52:05;96555.38;;;2.76;99.07
72409;BME280;60402;48.082;11.628;2023-02-04T05:54:30;96591.94;;;2.91;99.17
72409;BME280;60402;48.082;11.628;2023-02-04T05:56:56;96592.69;;;2.88;98.33
72409;BME280;60402;48.082;11.628;2023-02-04T05:59:21;96608.66;;;3.06;97.30
72409;BME280;60402;48.082;11.628;2023-02-04T06:01:46;96592.19;;;3.01;96.69
72409;BME280;60402;48.082;11.628;2023-02-04T06:04:11;96589.16;;;2.91;96.28
72409;BME280;60402;48.082;11.628;2023-02-04T06:06:39;96617.25;;;2.98;97.07
72409;BME280;60402;48.082;11.628;2023-02-04T06:09:04;96631.78;;;3.07;97.24
72409;BME280;60402;48.082;11.628;2023-02-04T06:11:30;96620.31;;;2.93;97.78
72409;BME280;60402;48.082;11.628;2023-02-04T06:13:55;96627.91;;;2.92;98.18
72409;BME280;60402;48.082;11.628;2023-02-04T06:16:20;96639.72;;;3.05;98.37
72409;BME280;60402;48.082;11.628;2023-02-04T06:18:46;96652.44;;;3.02;98.72
72409;BME280;60402;48.082;11.628;2023-02-04T06:21:11;96652.66;;;2.94;99.90
72409;BME280;60402;48.082;11.628;2023-02-04T06:23:36;96657.34;;;2.90;100.00
72409;BME280;60402;48.082;11.628;2023-02-04T06:26:02;96662.19;;;2.93;100.00
72409;BME280;60402;48.082;11.628;2023-02-04T06:28:27;96646.47;;;2.85;100.00
72409;BME280;60402;48.082;11.628;2023-02-04T06:30:52;96652.47;;;2.87;100.00
72409;BME280;60402;48.082;11.628;2023-02-04T06:33:18;96678.28;;;2.99;100.00
72409;BME280;60402;48.082;11.628;2023-02-04T06:35:43;96653.06;;;2.96;100.00
72409;BME280;60402;48.082;11.628;2023-02-04T06:38:08;96670.28;;;2.98;100.00
72409;BME280;60402;48.082;11.628;2023-02-04T06:40:34;96670.50;;;2.89;100.00
72409;BME280;60402;48.082;11.628;2023-02-04T06:42:59;96662.94;;;2.90;100.00
72409;BME280;60402;48.082;11.628;2023-02-04T06:45:24;96678.59;;;2.94;100.00
72409;BME280;60402;48.082;11.628;2023-02-04T06:47:50;96639.25;;;2.64;100.00
72409;BME280;60402;48.082;11.628;2023-02-04T06:50:15;96662.94;;;2.90;100.00
72409;BME280;60402;48.082;11.628;2023-02-04T06:52:46;96661.09;;;2.97;100.00
72409;BME280;60402;48.082;11.628;2023-02-04T06:55:13;96679.69;;;3.09;99.99
72409;BME280;60402;48.082;11.628;2023-02-04T06:57:38;96656.53;;;2.89;99.65
72409;BME280;60402;48.082;11.628;2023-02-04T07:00:05;96683.25;;;3.06;100.00
72409;BME280;60402;48.082;11.628;2023-02-04T07:02:30;96652.13;;;2.88;99.78
72409;BME280;60402;48.082;11.628;2023-02-04T07:04:56;96660.00;;;2.83;100.00
72409;BME280;60402;48.082;11.628;2023-02-04T07:07:21;96692.34;;;3.03;99.69
72409;BME280;60402;48.082;11.628;2023-02-04T07:09:46;96674.47;;;2.88;100.00
72409;BME280;60402;48.082;11.628;2023-02-04T07:12:12;96695.13;;;3.03;99.77
72409;BME280;60402;48.082;11.628;2023-02-04T07:14:37;96692.25;;;2.99;99.78
72409;BME280;60402;48.082;11.628;2023-02-04T07:17:02;96704.78;;;3.25;98.55
72409;BME280;60402;48.082;11.628;2023-02-04T07:19:28;96683.81;;;3.15;98.33
72409;BME280;60402;48.082;11.628;2023-02-04T07:21:53;96682.34;;;3.21;97.22
72409;BME280;60402;48.082;11.628;2023-02-04T07:24:21;96712.63;;;3.39;97.19
72409;BME280;60402;48.082;11.628;2023-02-04T07:26:47;96701.22;;;3.28;96.04
72409;BME280;60402;48.082;11.628;2023-02-04T07:29:12;96711.81;;;3.19;96.89
72409;BME280;60402;48.082;11.628;2023-02-04T07:31:37;96721.16;;;3.26;96.81
72409;BME280;60402;48.082;11.628;2023-02-04T07:34:03;96706.00;;;3.08;96.81
72409;BME280;60402;48.082;11.628;2023-02-04T07:36:28;96738.22;;;3.41;94.45
72409;BME280;60402;48.082;11.628;2023-02-04T07:38:53;96743.81;;;3.41;93.92
72409;BME280;60402;48.082;11.628;2023-02-04T07:41:19;96751.09;;;3.45;94.78
72409;BME280;60402;48.082;11.628;2023-02-04T07:43:45;96738.16;;;3.37;94.26
72409;BME280;60402;48.082;11.628;2023-02-04T07:46:10;96734.75;;;3.28;94.49
72409;BME280;60402;48.082;11.628;2023-02-04T07:48:36;96762.06;;;3.54;93.01
72409;BME280;60402;48.082;11.628;2023-02-04T07:51:01;96731.97;;;3.28;92.97
72409;BME280;60402;48.082;11.628;2023-02-04T07:53:26;96774.63;;;3.44;94.36
72409;BME280;60402;48.082;11.628;2023-02-04T07:55:52;96762.06;;;3.35;93.89
72409;BME280;60402;48.082;11.628;2023-02-04T07:58:17;96752.28;;;3.25;94.12
72409;BME280;60402;48.082;11.628;2023-02-04T08:00:42;96748.59;;;3.21;94.15
72409;BME280;60402;48.082;11.628;2023-02-04T08:03:08;96763.00;;;3.42;93.43
72409;BME280;60402;48.082;11.628;2023-02-04T08:05:33;96747.63;;;3.32;93.35
72409;BME280;60402;48.082;11.628;2023-02-04T08:07:58;96779.03;;;3.65;92.53
72409;BME280;60402;48.082;11.628;2023-02-04T08:10:26;96743.94;;;3.48;91.66
72409;BME280;60402;48.082;11.628;2023-02-04T08:12:51;96756.81;;;3.52;92.05
72409;BME280;60402;48.082;11.628;2023-02-04T08:15:16;96770.75;;;3.68;90.72
72409;BME280;60402;48.082;11.628;2023-02-04T08:17:42;96761.09;;;3.66;91.02
72409;BME280;60402;48.082;11.628;2023-02-04T08:20:07;96755.00;;;3.60;90.91
72409;BME280;60402;48.082;11.628;2023-02-04T08:22:33;96785.00;;;3.82;90.07
72409;BME280;60402;48.082;11.628;2023-02-04T08:24:59;96773.06;;;3.66;90.81
72409;BME280;60402;48.082;11.628;2023-02-04T08:27:24;96797.19;;;3.94;90.48
72409;BME280;60402;48.082;11.628;2023-02-04T08:29:50;96789.63;;;3.94;89.59
72409;BME280;60402;48.082;11.628;2023-02-04T08:32:15;96773.53;;;3.88;89.46
72409;BME280;60402;48.082;11.628;2023-02-04T08:34:40;96775.63;;;3.94;87.96
72409;BME280;60402;48.082;11.628;2023-02-04T08:37:06;96769.25;;;3.74;88.91
72409;BME280;60402;48.082;11.628;2023-02-04T08:39:31;96786.47;;;3.96;88.59
72409;BME280;60402;48.082;11.628;2023-02-04T08:41:57;96799.34;;;4.00;87.97
72409;BME280;60402;48.082;11.628;2023-02-04T08:44:22;96807.94;;;4.11;87.70
72409;BME280;60402;48.082;11.628;2023-02-04T08:46:48;96797.03;;;4.25;86.23
72409;BME280;60402;48.082;11.628;2023-02-04T08:49:13;96783.75;;;4.22;86.12
72409;BME280;60402;48.082;11.628;2023-02-04T08:51:38;96799.66;;;4.38;86.26
72409;BME280;60402;48.082;11.628;2023-02-04T08:54:04;96797.69;;;4.42;85.37
72409;BME280;60402;48.082;11.628;2023-02-04T08:56:29;96798.47;;;4.39;86.06
72409;BME280;60402;48.082;11.628;2023-02-04T08:58:55;96810.00;;;4.56;86.17
72409;BME280;60402;48.082;11.628;2023-02-04T09:01:20;96788.25;;;4.50;85.75
72409;BME280;60402;48.082;11.628;2023-02-04T09:03:46;96775.13;;;4.31;86.59
72409;BME280;60402;48.082;11.628;2023-02-04T09:06:11;96827.84;;;4.71;86.23
72409;BME280;60402;48.082;11.628;2023-02-04T09:08:37;96808.00;;;4.57;84.18
72409;BME280;60402;48.082;11.628;2023-02-04T09:11:02;96804.25;;;4.72;83.35
72409;BME280;60402;48.082;11.628;2023-02-04T09:13:28;96812.09;;;5.12;82.11
72409;BME280;60402;48.082;11.628;2023-02-04T09:15:54;96806.44;;;5.35;81.18
72409;BME280;60402;48.082;11.628;2023-02-04T09:18:19;96815.03;;;5.46;80.03
72409;BME280;60402;48.082;11.628;2023-02-04T09:20:47;96830.91;;;7.10;75.74
72409;BME280;60402;48.082;11.628;2023-02-04T09:23:13;96818.81;;;9.95;65.25
72409;BME280;60402;48.082;11.628;2023-02-04T09:25:39;96831.41;;;9.58;64.40
72409;BME280;60402;48.082;11.628;2023-02-04T09:28:05;96818.88;;;8.70;66.68
72409;BME280;60402;48.082;11.628;2023-02-04T09:30:30;96825.94;;;8.10;66.89
72409;BME280;60402;48.082;11.628;2023-02-04T09:32:56;96842.28;;;7.83;69.40
72409;BME280;60402;48.082;11.628;2023-02-04T09:35:21;96838.78;;;7.42;70.33
72409;BME280;60402;48.082;11.628;2023-02-04T09:37:46;96825.41;;;6.77;73.16
72409;BME280;60402;48.082;11.628;2023-02-04T09:40:14;96844.06;;;6.58;74.01
72409;BME280;60402;48.082;11.628;2023-02-04T09:42:41;96856.53;;;6.24;76.49
72409;BME280;60402;48.082;11.628;2023-02-04T09:45:12;96846.22;;;6.01;76.27
72409;BME280;60402;48.082;11.628;2023-02-04T09:47:39;96864.31;;;6.04;76.03
72409;BME280;60402;48.082;11.628;2023-02-04T09:50:08;96870.63;;;5.97;76.82
72409;BME280;60402;48.082;11.628;2023-02-04T09:52:33;96870.59;;;5.94;76.79
72409;BME280;60402;48.082;11.628;2023-02-04T09:54:59;96840.88;;;5.62;77.39
72409;BME280;60402;48.082;11.628;2023-02-04T09:57:24;96870.41;;;5.83;78.13
72409;BME280;60402;48.082;11.628;2023-02-04T09:59:50;96849.09;;;5.78;77.29
72409;BME280;60402;48.082;11.628;2023-02-04T10:02:24;96880.13;;;5.89;77.14
72409;BME280;60402;48.082;11.628;2023-02-04T10:04:55;96854.16;;;5.66;76.10
72409;BME280;60402;48.082;11.628;2023-02-04T10:07:22;96873.69;;;5.88;76.74
72409;BME280;60402;48.082;11.628;2023-02-04T10:09:50;96880.16;;;5.93;77.81
72409;BME280;60402;48.082;11.628;2023-02-04T10:12:16;96859.84;;;5.73;77.42
72409;BME280;60402;48.082;11.628;2023-02-04T10:14:42;96859.22;;;5.86;77.42
72409;BME280;60402;48.082;11.628;2023-02-04T10:17:09;96862.31;;;5.78;77.63
72409;BME280;60402;48.082;11.628;2023-02-04T10:19:35;96873.41;;;5.97;76.93
72409;BME280;60402;48.082;11.628;2023-02-04T10:22:02;96884.13;;;6.18;77.23
72409;BME280;60402;48.082;11.628;2023-02-04T10:24:27;96873.59;;;6.11;76.54
72409;BME280;60402;48.082;11.628;2023-02-04T10:27:06;96886.09;;;6.14;78.38
72409;BME280;60402;48.082;11.628;2023-02-04T10:29:31;96847.41;;;5.70;77.24
72409;BME280;60402;48.082;11.628;2023-02-04T10:31:56;96865.91;;;5.48;79.33
72409;BME280;60402;48.082;11.628;2023-02-04T10:34:33;96887.94;;;5.50;79.16
72409;BME280;60402;48.082;11.628;2023-02-04T10:36:59;96852.53;;;4.66;81.28
72409;BME280;60402;48.082;11.628;2023-02-04T10:39:41;96888.81;;;4.58;84.66
72409;BME280;60402;48.082;11.628;2023-02-04T10:42:19;96878.06;;;4.41;84.44
72409;BME280;60402;48.082;11.628;2023-02-04T10:44:46;96884.56;;;4.26;86.05
72409;BME280;60402;48.082;11.628;2023-02-04T10:47:18;96899.75;;;4.25;85.93
72409;BME280;60402;48.082;11.628;2023-02-04T10:50:24;96870.78;;;3.59;89.92
72409;BME280;60402;48.082;11.628;2023-02-04T10:52:45;96898.84;;;4.01;88.49
72409;BME280;60402;48.082;11.628;2023-02-04T10:55:15;96882.78;;;3.98;88.27
72409;BME280;60402;48.082;11.628;2023-02-04T10:57:43;96887.00;;;4.08;88.29
72409;BME280;60402;48.082;11.628;2023-02-04T11:00:19;96902.59;;;4.09;88.42
72409;BME280;60402;48.082;11.628;2023-02-04T11:02:52;96906.06;;;4.22;87.74
72409;BME280;60402;48.082;11.628;2023-02-04T11:05:22;96903.47;;;4.13;89.06
72409;BME280;60402;48.082;11.628;2023-02-04T11:07:48;96900.97;;;4.27;87.77
72409;BME280;60402;48.082;11.628;2023-02-04T11:10:22;96891.94;;;3.60;89.30
72409;BME280;60402;48.082;11.628;2023-02-04T11:18:12;96895.09;;;3.94;88.00
72409;BME280;60402;48.082;11.628;2023-02-04T11:20:49;96897.66;;;4.22;87.94
72409;BME280;60402;48.082;11.628;2023-02-04T11:26:04;96894.13;;;3.86;85.04
72409;BME280;60402;48.082;11.628;2023-02-04T11:33:45;96895.97;;;3.27;86.40
72409;BME280;60402;48.082;11.628;2023-02-04T11:36:12;96878.78;;;3.10;88.11
72409;BME280;60402;48.082;11.628;2023-02-04T11:38:42;96888.50;;;3.31;86.20
72409;BME280;60402;48.082;11.628;2023-02-04T11:41:22;96870.25;;;3.02;87.28
72409;BME280;60402;48.082;11.628;2023-02-04T11:43:52;96884.47;;;3.13;87.07
72409;BME280;60402;48.082;11.628;2023-02-04T11:46:19;96894.13;;;3.51;86.82
72409;BME280;60402;48.082;11.628;2023-02-04T11:48:44;96866.97;;;3.32;86.54
72409;BME280;60402;48.082;11.628;2023-02-04T11:51:15;96877.66;;;3.46;87.04
72409;BME280;60402;48.082;11.628;2023-02-04T11:53:41;96899.06;;;3.57;86.85
72409;BME280;60402;48.082;11.628;2023-02-04T11:56:16;96890.13;;;3.32;86.61
72409;BME280;60402;48.082;11.628;2023-02-04T11:58:42;96914.34;;;3.44;86.71
72409;BME280;60402;48.082;11.628;2023-02-04T12:01:17;96915.94;;;3.61;86.47
72409;BME280;60402;48.082;11.628;2023-02-04T12:03:47;96901.81;;;3.38;87.58
72409;BME280;60402;48.082;11.628;2023-02-04T12:06:21;96897.28;;;3.84;84.46
72409;BME280;60402;48.082;11.628;2023-02-04T12:08:46;96863.88;;;3.92;82.36
72409;BME280;60402;48.082;11.628;2023-02-04T12:11:24;96903.13;;;4.15;83.13
72409;BME280;60402;48.082;11.628;2023-02-04T12:13:53;96899.38;;;4.07;82.89
72409;BME280;60402;48.082;11.628;2023-02-04T12:16:19;96869.69;;;3.83;79.64
72409;BME280;60402;48.082;11.628;2023-02-04T12:18:45;96901.06;;;3.92;80.69
72409;BME280;60402;48.082;11.628;2023-02-04T12:21:10;96926.81;;;3.82;81.36
72409;BME280;60402;48.082;11.628;2023-02-04T12:23:35;96873.00;;;3.69;82.22
72409;BME280;60402;48.082;11.628;2023-02-04T12:26:01;96869.31;;;3.84;82.26
72409;BME280;60402;48.082;11.628;2023-02-04T12:28:26;96879.06;;;4.10;81.61
72409;BME280;60402;48.082;11.628;2023-02-04T12:30:55;96875.00;;;4.07;81.05
72409;BME280;60402;48.082;11.628;2023-02-04T12:33:20;96895.44;;;4.50;80.68
72409;BME280;60402;48.082;11.628;2023-02-04T12:35:47;96909.06;;;4.52;80.42
72409;BME280;60402;48.082;11.628;2023-02-04T12:38:12;96897.13;;;4.55;79.45
72409;BME280;60402;48.082;11.628;2023-02-04T12:40:38;96874.19;;;3.88;81.88
72409;BME280;60402;48.082;11.628;2023-02-04T12:43:03;96895.09;;;4.52;81.19
72409;BME280;60402;48.082;11.628;2023-02-04T12:45:28;96879.19;;;4.17;81.72
72409;BME280;60402;48.082;11.628;2023-02-04T12:47:54;96885.50;;;4.53;79.29
72409;BME280;60402;48.082;11.628;2023-02-04T12:50:19;96899.00;;;4.70;79.22
72409;BME280;60402;48.082;11.628;2023-02-04T12:52:54;96886.00;;;4.58;78.77
72409;BME280;60402;48.082;11.628;2023-02-04T12:55:21;96898.56;;;4.68;77.28
72409;BME280;60402;48.082;11.628;2023-02-04T12:57:47;96885.56;;;4.79;78.15
72409;BME280;60402;48.082;11.628;2023-02-04T13:00:13;96875.75;;;4.47;76.68
72409;BME280;60402;48.082;11.628;2023-02-04T13:02:39;96891.44;;;4.71;78.16
72409;BME280;60402;48.082;11.628;2023-02-04T13:05:05;96894.25;;;4.51;77.44
72409;BME280;60402;48.082;11.628;2023-02-04T13:07:30;96855.69;;;4.22;79.85